METAR Data
IDs: Format: Raw Decoded Include TAF

Data at: 1717 UTC 18 Feb 2019

METAR for:KCKP (Cherokee Cnty, IA, US)
Text:KCKP 181715Z AUTO 34003KT 10SM CLR M10/M16 A3047 RMK AO2 T11051156
Temperature:-10.5°C ( 13°F)
Dewpoint:-15.6°C ( 4°F) [RH = 66%]
Pressure (altimeter):30.47 inches Hg (1031.9 mb)
Winds:from the NNW (340 degrees) at 3 MPH (3 knots; 1.5 m/s)
Visibility:10 or more sm (16+ km)
Ceiling:at least 12,000 feet AGL
Clouds:sky clear below 12,000 feet AGL
QC Flag:automated observation with no human augmentation